Latest Weather Observations for Mount Crawford

IDS60801

Issued at 8:05 am CST Saturday 2 August 2014 (issued every 30 minutes, with the page automatically refreshed every 10 minutes)

About weather observations | Map of weather stations | Latest weather observations for SA | Other Formats
Station Details ID: 023878 Name: MT CRAWFORD AWS Lat: -34.73 Lon: 138.93 Height: 525.0 m
Data from the previous 72 hours. | See also: Recent months at Mount Crawford
Date/Time
CST
Temp
°C
App
Temp
°C
Dew
Point
Rel
Hum
%
Delta-T
°C
Wind Press
QNH
hPa
Press
MSL
hPa
Rain
since 9 am
mm
Dir
 
Spd
km/h
Gust
km/h
Spd
kts
Gust
kts
02/08:00am 4.7 2.9 1.2 78 1.4 CALM 0 0 0 0 1029.9 - 4.2
02/07:30am 3.9 0.8 1.1 82 1.1 NW 7 9 4 5 1029.6 1030.0 4.2
02/07:00am 3.3 -0.3 0.9 84 0.9 NNW 9 13 5 7 1029.1 - 4.2
02/06:30am 3.6 0.2 1.8 88 0.7 W 9 11 5 6 1028.8 1029.2 4.2
02/06:00am 3.8 0.4 1.8 87 0.8 W 9 11 5 6 1028.6 1029.0 4.2
02/05:30am 4.7 1.3 1.7 81 1.2 SSW 9 9 5 5 1028.3 1028.7 4.2
02/05:00am 4.8 1.4 1.6 80 1.3 SW 9 11 5 6 1028.2 - 4.2
02/04:30am 4.6 0.8 1.6 81 1.2 SSW 11 13 6 7 1028.1 1028.5 4.2
02/04:00am 4.1 -0.1 1.8 85 0.9 SSW 13 15 7 8 1027.9 - 4.2
02/03:30am 3.9 0.0 1.4 84 1.0 SSW 11 15 6 8 1027.9 1028.3 4.2
02/03:00am 4.9 0.7 1.6 79 1.3 S 13 15 7 8 1027.8 1028.2 4.2
02/02:30am 4.8 1.0 2.0 82 1.1 SSE 11 13 6 7 1027.6 1028.0 4.2
02/02:00am 4.2 0.4 1.7 84 1.0 SE 11 13 6 7 1027.6 - 4.2
02/01:30am 4.2 0.0 1.6 83 1.0 SSE 13 17 7 9 1027.4 1027.8 4.2
02/01:00am 3.3 -1.3 1.5 88 0.7 SE 15 19 8 10 1027.3 - 4.2
02/12:30am 4.4 -0.6 1.4 81 1.2 S 17 20 9 11 1027.1 1027.5 4.2
02/12:00am 4.5 -0.6 0.6 76 1.5 SSW 17 20 9 11 1027.1 1027.5 4.2
 
Date/Time
CST
Temp
°C
App
Temp
°C
Dew
Point
Rel
Hum
%
Delta-T
°C
Wind Press
QNH
hPa
Press
MSL
hPa
Rain
since 9 am
mm
Dir
 
Spd
km/h
Gust
km/h
Spd
kts
Gust
kts
01/11:30pm 4.4 -0.7 0.6 76 1.5 SSW 17 20 9 11 1026.9 1027.3 4.2
01/11:00pm 4.1 -0.6 0.8 79 1.3 SW 15 20 8 11 1026.9 - 4.2
01/10:30pm 4.2 -0.9 0.9 79 1.3 SSW 17 24 9 13 1026.7 1027.1 4.2
01/10:00pm 4.1 -0.6 0.8 79 1.3 SW 15 20 8 11 1026.5 - 4.2
01/09:30pm 4.0 -0.7 0.9 80 1.2 SW 15 19 8 10 1026.3 1026.7 4.2
01/09:00pm 3.8 -0.5 0.8 81 1.2 SW 13 19 7 10 1026.1 1026.5 4.2
01/08:30pm 4.3 -0.8 1.0 79 1.3 SW 17 24 9 13 1025.7 1026.0 4.2
01/08:00pm 3.9 -0.8 0.9 81 1.2 SW 15 19 8 10 1025.3 - 4.2
01/07:30pm 4.0 -1.4 1.2 82 1.1 SSW 19 22 10 12 1024.8 1025.2 4.2
01/07:00pm 4.2 -0.5 0.9 79 1.3 SSW 15 22 8 12 1024.4 - 4.2
01/06:30pm 4.0 -0.3 1.0 81 1.2 SW 13 20 7 11 1023.9 1024.2 4.2
01/06:00pm 4.2 -0.8 1.2 81 1.2 SW 17 22 9 12 1023.4 1023.7 4.2
01/05:30pm 4.7 -1.0 0.8 76 1.6 SW 20 26 11 14 1022.8 1023.2 4.2
01/05:00pm 5.5 -0.7 2.0 78 1.5 SW 24 41 13 22 1022.4 - 4.0
01/04:30pm 7.2 1.5 0.6 63 2.7 SW 20 37 11 20 1021.7 1022.0 4.0
01/04:00pm 6.8 0.4 1.1 67 2.4 SW 24 39 13 21 1021.0 - 4.0
01/03:30pm 6.3 0.6 2.8 78 1.5 SW 22 35 12 19 1020.3 1020.6 4.0
01/03:03pm 5.5 -2.0 3.3 86 0.9 SW 32 50 17 27 1020.0 - 4.0
01/03:00pm 4.9 -2.9 2.6 85 1.0 SSW 33 50 18 27 1019.8 1020.1 4.0
01/02:51pm 5.5 -3.5 2.5 81 1.3 SSW 39 50 21 27 1019.9 - 4.0
01/02:34pm 7.2 0.5 3.8 79 1.5 WSW 28 48 15 26 1019.5 - 4.0
01/02:30pm 7.7 2.4 5.0 83 1.2 WSW 22 35 12 19 1019.5 1019.8 4.0
01/02:00pm 6.3 0.7 5.6 95 0.3 WSW 24 43 13 23 1019.0 - 4.0
01/01:30pm 5.0 0.2 4.9 99 0.0 WSW 19 32 10 17 1018.7 1019.0 4.0
01/01:10pm 3.9 -2.8 3.6 98 0.1 WSW 28 50 15 27 1018.5 - 2.6
01/01:00pm 5.8 0.5 5.1 95 0.3 WSW 22 41 12 22 1018.2 - 1.8
01/12:30pm 4.8 -0.9 4.7 99 0.0 WSW 24 43 13 23 1018.2 1018.5 1.8
01/12:00pm 6.1 -1.4 3.6 84 1.1 WSW 32 56 17 30 1017.5 1017.7 1.0
01/11:30am 5.4 -2.4 2.6 82 1.2 WSW 33 52 18 28 1017.6 1017.8 1.0
01/11:00am 6.6 -1.1 3.6 81 1.3 WSW 33 52 18 28 1017.3 - 1.0
01/10:44am 5.9 -0.7 4.4 90 0.7 WSW 28 48 15 26 1016.7 - 1.0
01/10:30am 5.4 -2.0 3.9 90 0.7 WSW 32 44 17 24 1016.5 1016.8 1.0
01/10:00am 5.3 -2.0 4.3 93 0.4 WSW 32 52 17 28 1016.0 - 1.0
01/09:52am 5.0 -1.5 4.6 97 0.2 WSW 28 46 15 25 1015.7 - 1.0
01/09:30am 4.2 -2.5 3.8 97 0.2 WSW 28 44 15 24 1015.4 1015.6 1.0
01/09:00am 4.4 -4.5 2.9 90 0.6 WSW 39 65 21 35 1014.2 1014.6 16.2
01/08:30am 5.2 -3.8 2.2 81 1.3 WSW 39 69 21 37 1013.1 1013.5 16.0
01/08:00am 4.6 -3.0 2.6 87 0.8 WSW 32 57 17 31 1012.8 - 16.0
01/07:30am 4.9 -3.4 2.1 82 1.2 WSW 35 54 19 29 1012.1 1012.5 16.0
01/07:00am 4.6 -3.3 2.3 85 1.0 W 33 52 18 28 1011.4 - 15.8
01/06:30am 3.9 -3.2 3.8 99 0.0 W 30 48 16 26 1011.1 1011.4 15.8
01/06:00am 3.2 -4.4 3.1 99 0.0 W 32 50 17 27 1010.3 1010.7 15.8
01/05:30am 3.0 -6.3 2.9 99 0.0 W 41 59 22 32 1009.6 1009.9 15.8
01/05:00am 4.0 -4.4 3.9 99 0.0 W 37 56 20 30 1009.2 - 14.8
01/04:37am 3.5 -5.3 3.4 99 0.0 W 39 59 21 32 1008.9 - 14.6
01/04:30am 3.3 -5.2 3.2 99 0.0 W 37 52 20 28 1008.9 1009.3 14.6
01/04:00am 2.8 -5.4 2.7 99 0.0 W 35 57 19 31 1008.8 - 14.6
01/03:52am 2.7 -5.9 2.6 99 0.0 WSW 37 50 20 27 1008.8 - 14.6
01/03:44am 2.8 -9.4 2.7 99 0.0 WSW 56 85 30 46 1008.5 - 14.4
01/03:40am 3.1 -5.0 3.0 99 0.0 W 35 69 19 37 1009.1 - 14.2
01/03:35am 3.2 -4.0 3.1 99 0.0 W 30 50 16 27 1008.6 - 13.8
01/03:30am 3.0 -4.2 2.9 99 0.0 W 30 43 16 23 1008.8 1009.2 13.6
01/03:00am 3.0 -4.6 2.9 99 0.0 W 32 50 17 27 1008.9 1009.3 13.2
01/02:37am 3.4 -3.4 3.3 99 0.0 WSW 28 48 15 26 1009.2 - 13.2
01/02:30am 3.5 -3.6 3.4 99 0.0 WNW 30 43 16 23 1008.8 1009.2 12.6
01/02:00am 3.3 -4.2 3.2 99 0.0 W 32 46 17 25 1009.4 - 12.6
01/01:30am 3.0 -3.8 2.9 99 0.0 WSW 28 43 15 23 1009.3 1009.6 12.6
01/01:19am 2.9 -5.7 2.8 99 0.0 WSW 37 56 20 30 1009.3 - 12.6
01/01:16am 3.0 -5.9 2.9 99 0.0 WSW 39 56 21 30 1009.2 - 12.6
01/01:00am 4.7 -3.4 3.2 90 0.6 W 35 54 19 29 1008.5 - 12.4
01/12:42am 4.6 -2.9 3.4 92 0.5 W 32 50 17 27 1008.9 - 12.4
01/12:30am 4.2 -2.5 3.6 96 0.3 W 28 39 15 21 1009.1 1009.4 12.4
01/12:00am 4.3 -2.8 3.6 95 0.3 W 30 44 16 24 1009.1 1009.4 12.4
 
Date/Time
CST
Temp
°C
App
Temp
°C
Dew
Point
Rel
Hum
%
Delta-T
°C
Wind Press
QNH
hPa
Press
MSL
hPa
Rain
since 9 am
mm
Dir
 
Spd
km/h
Gust
km/h
Spd
kts
Gust
kts
31/11:30pm 4.0 -2.7 3.6 97 0.2 W 28 44 15 24 1009.1 1009.4 12.4
31/11:00pm 4.3 -2.8 3.3 93 0.4 W 30 41 16 22 1008.9 - 12.4
31/10:30pm 4.3 -2.4 3.4 94 0.4 W 28 41 15 22 1009.1 1009.4 12.4
31/10:00pm 3.9 -2.0 3.8 99 0.0 W 24 35 13 19 1009.1 - 12.4
31/09:30pm 4.0 -1.9 3.9 99 0.0 W 24 39 13 21 1008.9 1009.3 12.4
31/09:04pm 4.0 -3.4 4.0 100 0.0 W 32 50 17 27 1008.4 - 12.4
31/09:00pm 3.9 -3.7 3.9 100 0.0 W 33 46 18 25 1008.4 1008.8 12.4
31/08:30pm 3.5 -3.6 3.4 99 0.0 W 30 41 16 22 1008.3 1008.7 12.4
31/08:00pm 3.8 -4.2 3.7 99 0.0 WSW 35 61 19 33 1008.1 - 12.4
31/07:31pm 4.8 -3.0 4.8 100 0.0 W 35 56 19 30 1007.3 - 11.8
31/07:30pm 4.7 -2.8 4.7 100 0.0 W 33 48 18 26 1007.4 1007.7 11.8
31/07:00pm 4.6 -2.7 4.6 100 0.0 W 32 44 17 24 1007.0 - 11.8
31/06:30pm 4.6 -2.7 4.6 100 0.0 W 32 52 17 28 1006.7 1007.1 11.8
31/06:00pm 5.2 -2.0 5.2 100 0.0 W 32 50 17 27 1006.1 1006.4 11.8
31/05:30pm 5.7 -3.1 5.7 100 0.0 W 41 59 22 32 1005.4 1005.7 11.6
31/05:00pm 6.4 -4.7 6.4 100 0.0 W 54 93 29 50 1004.4 - 10.2
31/04:52pm 6.7 -4.3 6.7 100 0.0 W 54 93 29 50 1003.6 - 10.0
31/04:30pm 6.7 -2.8 6.7 100 0.0 W 46 69 25 37 1004.0 1004.3 9.4
31/04:00pm 6.4 -2.8 6.4 100 0.0 W 44 69 24 37 1004.0 - 8.8
31/03:39pm 7.3 -2.8 7.3 100 0.0 W 50 91 27 49 1003.3 - 7.2
31/03:30pm 7.6 -1.7 7.6 100 0.0 WNW 46 67 25 36 1003.4 1003.7 6.0
31/03:00pm 7.4 -1.6 7.4 100 0.0 W 44 69 24 37 1003.2 1003.5 5.6
31/02:30pm 7.3 -2.8 7.3 100 0.0 W 50 82 27 44 1002.6 1002.9 5.2
31/02:00pm 7.2 -1.8 7.2 100 0.0 W 44 65 24 35 1002.8 - 3.8
31/01:30pm 8.2 0.4 8.1 99 0.0 W 39 59 21 32 1002.3 1002.6 2.0
31/01:00pm 10.1 0.0 8.9 92 0.6 WNW 52 80 28 43 1001.7 - 0.0
31/12:30pm 11.7 0.0 7.8 77 2.0 WNW 59 91 32 49 1001.6 1001.9 0.0
31/12:00pm 11.6 0.4 7.5 76 2.1 WNW 56 80 30 43 1002.2 1002.5 0.0
31/11:30am 12.0 1.2 7.5 74 2.3 WNW 54 80 29 43 1003.0 1003.2 0.0
31/11:00am 11.8 1.0 7.7 76 2.1 WNW 54 80 29 43 1003.4 - 0.0
31/10:30am 11.1 1.9 8.0 81 1.6 WNW 46 72 25 39 1003.7 1004.0 0.0
31/10:00am 10.0 0.3 7.6 85 1.2 WNW 48 70 26 38 1004.2 - 0.0
31/09:30am 9.7 0.3 7.0 83 1.3 WNW 46 70 25 38 1004.6 1004.9 0.0
31/09:00am 9.2 -1.1 6.6 84 1.3 WNW 50 72 27 39 1004.5 1004.8 0.4
31/08:30am 8.3 -0.7 6.4 88 0.9 WNW 43 63 23 34 1005.0 1005.3 0.4
31/08:00am 8.1 -0.6 6.2 88 0.9 WNW 41 61 22 33 1005.1 - 0.4
31/07:30am 8.2 -0.8 6.3 88 0.9 WNW 43 61 23 33 1005.2 1005.5 0.4
31/07:00am 8.1 -0.2 6.2 88 0.9 WNW 39 57 21 31 1005.4 - 0.4
31/06:30am 8.0 0.1 6.1 88 0.9 NW 37 57 20 31 1005.8 1006.1 0.4
31/06:00am 8.2 0.7 6.2 87 0.9 WNW 35 56 19 30 1006.0 1006.3 0.4
31/05:37am 8.5 0.6 6.1 85 1.1 WNW 37 57 20 31 1006.3 - 0.4
31/05:30am 8.5 0.2 6.1 85 1.1 NW 39 56 21 30 1006.3 1006.6 0.4
31/05:04am 8.4 0.9 6.2 86 1.0 NW 35 54 19 29 1006.4 - 0.4
31/05:00am 8.5 1.0 6.3 86 1.0 NW 35 50 19 27 1006.5 - 0.4
31/04:34am 8.2 0.7 6.5 89 0.8 NW 35 54 19 29 1007.0 - 0.4
31/04:30am 8.1 0.7 6.6 90 0.7 NW 35 52 19 28 1007.1 1007.4 0.4
31/04:29am 8.0 0.9 6.5 90 0.7 NW 33 52 18 28 1007.1 - 0.4
31/04:00am 8.0 0.6 6.6 91 0.7 NW 35 50 19 27 1007.5 - 0.4
31/03:45am 8.3 0.9 6.8 90 0.7 WNW 35 54 19 29 1007.6 - 0.4
31/03:30am 8.4 1.0 6.9 90 0.7 WNW 35 52 19 28 1007.7 1008.0 0.4
31/03:21am 8.3 0.9 6.8 90 0.7 WNW 35 54 19 29 1007.8 - 0.4
31/03:00am 8.5 0.4 7.0 90 0.7 WNW 39 56 21 30 1007.9 1008.2 0.4
31/02:30am 8.6 0.1 7.1 90 0.7 WNW 41 61 22 33 1008.3 1008.7 0.4
31/02:00am 8.9 0.5 7.4 90 0.7 WNW 41 63 22 34 1008.5 - 0.4
31/01:30am 8.8 0.1 7.9 94 0.4 WNW 43 65 23 35 1008.8 1009.2 0.4
31/01:21am 8.7 0.5 8.1 96 0.3 WNW 41 59 22 32 1008.9 - 0.4
31/01:00am 8.9 0.8 8.5 97 0.2 WNW 41 54 22 29 1009.3 - 0.4
31/12:30am 9.0 0.9 8.7 98 0.2 WNW 41 56 22 30 1009.6 1009.9 0.4
31/12:27am 9.0 0.9 8.7 98 0.2 WNW 41 59 22 32 1009.7 - 0.4
31/12:00am 9.2 1.2 8.9 98 0.2 WNW 41 54 22 29 1010.0 1010.4 0.4
 
Date/Time
CST
Temp
°C
App
Temp
°C
Dew
Point
Rel
Hum
%
Delta-T
°C
Wind Press
QNH
hPa
Press
MSL
hPa
Rain
since 9 am
mm
Dir
 
Spd
km/h
Gust
km/h
Spd
kts
Gust
kts
30/11:30pm 9.4 1.9 9.3 99 0.1 WNW 39 57 21 31 1010.3 1010.7 0.4
30/11:04pm 9.3 1.7 9.2 99 0.1 WNW 39 59 21 32 1010.8 - 0.4
30/11:00pm 9.4 1.5 9.3 99 0.1 WNW 41 52 22 28 1010.9 - 0.4
30/10:34pm 9.5 2.0 9.4 99 0.1 WNW 39 57 21 31 1011.2 - 0.4
30/10:30pm 9.4 1.9 9.3 99 0.1 WNW 39 56 21 30 1011.3 1011.7 0.4
30/10:00pm 9.4 1.9 9.3 99 0.1 WNW 39 54 21 29 1011.7 - 0.4
30/09:30pm 9.2 2.8 9.2 100 0.0 WNW 33 44 18 24 1012.2 1012.6 0.4
30/09:00pm 9.9 3.8 9.8 99 0.1 WNW 32 44 17 24 1012.7 1013.1 0.4
30/08:30pm 10.5 4.3 10.0 97 0.3 WNW 33 48 18 26 1012.9 1013.4 0.4
30/08:00pm 10.5 4.5 10.2 98 0.2 WNW 32 44 17 24 1013.3 - 0.4
30/07:30pm 10.6 4.5 10.4 99 0.1 WNW 33 44 18 24 1013.6 1014.0 0.4
30/07:00pm 10.5 5.0 10.5 100 0.0 WNW 30 43 16 23 1013.8 - 0.4
30/06:30pm 10.5 4.6 10.5 100 0.0 WNW 32 46 17 25 1013.6 1014.0 0.4
30/06:00pm 10.7 4.7 10.7 100 0.0 WNW 33 46 18 25 1013.6 1014.0 0.4
30/05:37pm 10.7 4.7 10.7 100 0.0 WNW 33 52 18 28 1013.5 - 0.4
30/05:30pm 10.9 5.1 10.9 100 0.0 NW 32 46 17 25 1013.6 1014.0 0.4
30/05:00pm 10.8 5.0 10.8 100 0.0 WNW 32 46 17 25 1013.6 - 0.4
30/04:31pm 10.8 4.8 10.8 100 0.0 NW 33 52 18 28 1013.8 - 0.4
30/04:30pm 10.8 4.8 10.8 100 0.0 NW 33 50 18 27 1013.8 1014.2 0.4
30/04:04pm 10.8 5.4 10.8 100 0.0 NW 30 48 16 26 1014.1 - 0.2
30/04:00pm 10.8 5.0 10.8 100 0.0 NW 32 48 17 26 1014.0 - 0.2
30/03:30pm 10.9 4.9 10.9 100 0.0 WNW 33 46 18 25 1014.1 1014.5 0.2
30/03:11pm 11.0 5.3 11.0 100 0.0 WNW 32 52 17 28 1014.1 - 0.2
30/03:00pm 11.0 5.3 11.0 100 0.0 WNW 32 48 17 26 1014.2 1014.6 0.2
30/02:30pm 10.8 4.8 10.8 100 0.0 WNW 33 56 18 30 1014.4 1014.8 0.2
30/02:00pm 10.8 4.8 10.8 100 0.0 WNW 33 52 18 28 1014.6 - 0.2
30/01:44pm 10.8 5.0 10.8 100 0.0 WNW 32 52 17 28 1014.8 - 0.0
30/01:30pm 10.9 5.9 10.9 100 0.0 WNW 28 43 15 23 1014.9 1015.4 0.0
30/01:25pm 10.9 5.9 10.9 100 0.0 WNW 28 46 15 25 1015.2 - 0.0
30/01:00pm 11.0 5.3 11.0 100 0.0 WNW 32 44 17 24 1015.5 - 0.0
30/12:30pm 10.9 4.9 10.9 100 0.0 WNW 33 44 18 24 1016.0 1016.4 0.0
30/12:00pm 11.0 5.6 11.0 100 0.0 WNW 30 46 16 25 1016.4 1016.9 0.0
30/11:33am 10.5 5.0 10.5 100 0.0 WNW 30 48 16 26 1016.9 - 0.0
30/11:30am 10.5 4.6 10.5 100 0.0 WNW 32 48 17 26 1017.1 1017.5 0.0
30/11:00am 10.1 4.9 10.1 100 0.0 WNW 28 50 15 27 1017.2 - 0.0
30/10:30am 9.9 3.8 9.9 100 0.0 WNW 32 44 17 24 1017.5 1017.9 0.0
30/10:00am 9.8 3.5 9.8 100 0.0 WNW 33 54 18 29 1017.6 - 0.0
30/09:49am 9.8 3.7 9.8 100 0.0 WNW 32 50 17 27 1017.6 - 0.0
30/09:30am 9.7 3.0 9.7 100 0.0 WNW 35 52 19 28 1017.6 1018.0 0.0
30/09:00am 9.6 3.5 9.6 100 0.0 WNW 32 43 17 23 1017.3 1017.7 15.8
30/08:30am 9.6 3.3 9.6 100 0.0 WNW 33 46 18 25 1017.1 1017.5 15.8
30/08:25am 9.6 3.5 9.6 100 0.0 WNW 32 50 17 27 1017.2 - 15.8

Other Formats:

Comma delimited format used in spreadsheet applications
http://www.bom.gov.au/fwo/IDS60801/IDS60801.94678.axf

JavaScript Object Notation format (JSON) in row-major order
http://www.bom.gov.au/fwo/IDS60801/IDS60801.94678.json